Time;durP1;ratioP1;P1;durP2;ratioP2;P2;SDS_P1;SDS_P2;PMS_P1;PMS_P2;Temp;Humidity;BMP_temperature;BMP_pressure;BME280_temperature;BME280_humidity;BME280_pressure;Samples;Min_cycle;Max_cycle;Signal;HPM_P1;HPM_P2
2022/04/10 00:01:28;;;;;;;11.20;2.17;;;;;;;;;;5125393;27;20410;-67
2022/04/10 00:03:54;;;;;;;6.00;1.80;;;;;;;;;;5125257;27;20034;-66
2022/04/10 00:06:19;;;;;;;8.40;2.42;;;;;;;;;;5124051;27;20051;-65
2022/04/10 00:08:45;;;;;;;7.57;2.10;;;;;;;;;;5120878;27;20039;-68
2022/04/10 00:11:10;;;;;;;8.20;1.70;;;;;;;;;;5123193;27;20031;-67
2022/04/10 00:13:36;;;;;;;8.38;1.80;;;;;;;;;;5125502;27;20401;-67
2022/04/10 00:16:02;;;;;;;7.75;1.73;;;;;;;;;;5126752;27;20019;-68
2022/04/10 00:18:27;;;;;;;7.30;2.17;;;;;;;;;;5124087;27;20015;-67
2022/04/10 00:20:53;;;;;;;11.25;2.28;;;;;;;;;;5121484;27;20091;-68
2022/04/10 00:23:18;;;;;;;7.55;2.40;;;;;;;;;;5122298;27;20032;-66
2022/04/10 00:25:43;;;;;;;9.13;2.25;;;;;;;;;;5120847;27;20323;-68
2022/04/10 00:28:08;;;;;;;7.38;1.40;;;;;;;;;;5107499;27;20046;-67
2022/04/10 00:30:34;;;;;;;6.80;1.73;;;;;;;;;;5126283;27;20038;-67
2022/04/10 00:33:00;;;;;;;9.73;2.03;;;;;;;;;;5124945;27;20027;-66
2022/04/10 00:35:25;;;;;;;5.18;1.88;;;;;;;;;;5123713;27;20037;-67
2022/04/10 00:37:51;;;;;;;6.07;1.88;;;;;;;;;;5105011;27;20026;-67
2022/04/10 00:40:16;;;;;;;6.47;2.30;;;;;;;;;;5120356;27;21459;-67
2022/04/10 00:42:47;;;;;;;7.90;2.28;;;;;;;;;;5123280;27;20475;-67
2022/04/10 00:45:12;;;;;;;13.88;2.60;;;;;;;;;;5124371;27;20019;-68
2022/04/10 00:47:37;;;;;;;12.40;1.85;;;;;;;;;;5126071;27;20015;-67
2022/04/10 00:50:04;;;;;;;9.15;1.80;;;;;;;;;;5125970;27;20070;-67
2022/04/10 00:52:29;;;;;;;6.82;1.73;;;;;;;;;;5125330;27;20373;-67
2022/04/10 00:54:55;;;;;;;7.18;1.63;;;;;;;;;;5138484;27;20030;-67
2022/04/10 00:57:21;;;;;;;6.65;1.75;;;;;;;;;;5125987;27;20054;-66
2022/04/10 00:59:46;;;;;;;10.88;2.75;;;;;;;;;;5144522;27;20454;-67
2022/04/10 01:02:12;;;;;;;8.60;2.95;;;;;;;;;;5127256;27;20469;-67
2022/04/10 01:04:37;;;;;;;7.60;1.60;;;;;;;;;;5124807;27;20015;-68
2022/04/10 01:07:04;;;;;;;4.57;1.50;;;;;;;;;;5123906;27;20019;-66
2022/04/10 01:09:31;;;;;;;7.60;1.85;;;;;;;;;;5119926;27;20043;-67
2022/04/10 01:11:56;;;;;;;8.70;2.17;;;;;;;;;;5124165;27;20344;-67
2022/04/10 01:14:22;;;;;;;7.75;1.83;;;;;;;;;;5124724;27;20051;-66
2022/04/10 01:16:47;;;;;;;10.05;1.92;;;;;;;;;;5103871;27;20114;-66
2022/04/10 01:19:13;;;;;;;9.90;2.50;;;;;;;;;;5106462;27;20462;-68
2022/04/10 01:21:39;;;;;;;8.75;1.75;;;;;;;;;;5120694;27;20022;-68
2022/04/10 01:24:05;;;;;;;10.35;1.95;;;;;;;;;;5118807;27;20584;-68
2022/04/10 01:26:31;;;;;;;5.68;1.92;;;;;;;;;;5123496;27;20053;-68
2022/04/10 01:29:09;;;;;;;8.68;1.85;;;;;;;;;;5123270;27;20023;-68
2022/04/10 01:31:36;;;;;;;7.72;1.70;;;;;;;;;;5125744;27;20019;-67
2022/04/10 01:34:03;;;;;;;9.20;2.50;;;;;;;;;;5123293;27;20111;-67
2022/04/10 01:36:28;;;;;;;8.65;1.90;;;;;;;;;;5102554;27;20023;-67
2022/04/10 01:38:57;;;;;;;4.65;2.25;;;;;;;;;;5118855;27;20087;-67
2022/04/10 01:41:26;;;;;;;7.50;1.98;;;;;;;;;;5104763;27;20026;-67
2022/04/10 01:43:52;;;;;;;10.00;1.90;;;;;;;;;;5104645;27;20026;-68
2022/04/10 01:46:18;;;;;;;7.93;1.95;;;;;;;;;;5105810;27;20023;-68
2022/04/10 01:48:44;;;;;;;9.55;2.00;;;;;;;;;;5123859;27;20023;-67
2022/04/10 01:51:10;;;;;;;8.07;2.10;;;;;;;;;;5097284;28;20425;-67
2022/04/10 01:53:36;;;;;;;6.90;1.83;;;;;;;;;;5100416;28;20352;-66
2022/04/10 01:56:04;;;;;;;12.25;1.90;;;;;;;;;;5098812;28;20073;-67
2022/04/10 01:58:40;;;;;;;6.88;1.63;;;;;;;;;;5103607;28;20023;-67
2022/04/10 02:01:06;;;;;;;9.02;1.83;;;;;;;;;;5103015;28;20028;-67
2022/04/10 02:03:31;;;;;;;7.68;1.80;;;;;;;;;;5107548;28;20024;-67
2022/04/10 02:05:57;;;;;;;7.20;1.70;;;;;;;;;;5100786;28;20176;-67
2022/04/10 02:08:23;;;;;;;6.90;1.83;;;;;;;;;;5101524;27;20026;-68
2022/04/10 02:10:48;;;;;;;10.40;1.92;;;;;;;;;;5103357;28;20024;-67
2022/04/10 02:13:14;;;;;;;8.93;1.95;;;;;;;;;;5088417;28;20027;-67
2022/04/10 02:15:39;;;;;;;6.38;1.80;;;;;;;;;;5086744;28;20421;-67
2022/04/10 02:18:05;;;;;;;8.82;1.90;;;;;;;;;;5106433;28;20358;-68
2022/04/10 02:20:31;;;;;;;5.32;1.58;;;;;;;;;;5106595;28;20195;-67
2022/04/10 02:22:57;;;;;;;4.30;1.60;;;;;;;;;;5101572;28;20030;-68
2022/04/10 02:25:24;;;;;;;5.57;1.73;;;;;;;;;;5084543;28;20028;-67
2022/04/10 02:27:50;;;;;;;9.18;1.88;;;;;;;;;;5105832;28;20093;-67
2022/04/10 02:30:16;;;;;;;5.88;1.95;;;;;;;;;;5103337;28;20483;-67
2022/04/10 02:32:41;;;;;;;7.30;2.13;;;;;;;;;;5105812;28;20032;-68
2022/04/10 02:35:07;;;;;;;8.05;1.75;;;;;;;;;;5105377;28;20031;-68
2022/04/10 02:37:32;;;;;;;6.18;2.03;;;;;;;;;;5105765;28;20343;-67
2022/04/10 02:39:58;;;;;;;7.25;1.63;;;;;;;;;;5100755;27;20020;-67
2022/04/10 02:42:23;;;;;;;7.57;1.85;;;;;;;;;;5105003;28;20012;-68
2022/04/10 02:44:48;;;;;;;10.32;1.88;;;;;;;;;;5104271;28;20019;-69
2022/04/10 02:47:13;;;;;;;8.27;1.60;;;;;;;;;;5101389;27;20202;-68
2022/04/10 02:49:39;;;;;;;7.55;1.60;;;;;;;;;;5105717;28;20107;-67
2022/04/10 02:52:04;;;;;;;9.40;1.80;;;;;;;;;;5101357;28;20050;-67
2022/04/10 02:54:30;;;;;;;10.45;2.05;;;;;;;;;;5101770;27;20088;-69
2022/04/10 02:56:56;;;;;;;6.30;1.60;;;;;;;;;;5085172;28;20032;-67
2022/04/10 02:59:21;;;;;;;6.07;1.50;;;;;;;;;;5104164;27;20055;-67
2022/04/10 03:01:50;;;;;;;8.98;1.70;;;;;;;;;;5104268;28;20034;-70
2022/04/10 03:04:15;;;;;;;4.40;1.73;;;;;;;;;;5102119;27;20032;-69
2022/04/10 03:06:40;;;;;;;7.10;1.73;;;;;;;;;;5103843;27;20436;-68
2022/04/10 03:09:05;;;;;;;9.15;2.03;;;;;;;;;;5099403;28;20396;-68
2022/04/10 03:11:31;;;;;;;9.20;1.70;;;;;;;;;;5106174;28;20379;-68
2022/04/10 03:13:56;;;;;;;8.77;1.70;;;;;;;;;;5103935;28;20304;-68
2022/04/10 03:16:21;;;;;;;13.13;1.73;;;;;;;;;;5085927;28;20020;-67
2022/04/10 03:18:46;;;;;;;5.22;1.27;;;;;;;;;;5102626;28;20019;-67
2022/04/10 03:21:11;;;;;;;7.53;1.75;;;;;;;;;;5083843;28;20043;-67
2022/04/10 03:23:37;;;;;;;7.20;1.77;;;;;;;;;;5101582;28;20121;-67
2022/04/10 03:26:02;;;;;;;4.70;1.52;;;;;;;;;;5083608;28;20023;-67
2022/04/10 03:28:27;;;;;;;5.95;1.92;;;;;;;;;;5103149;28;20023;-67
2022/04/10 03:30:53;;;;;;;6.45;1.80;;;;;;;;;;5104298;27;20024;-67
2022/04/10 03:33:19;;;;;;;8.77;2.30;;;;;;;;;;5104433;28;20082;-68
2022/04/10 03:35:44;;;;;;;13.60;1.83;;;;;;;;;;5098405;27;20559;-67
2022/04/10 03:38:09;;;;;;;6.65;1.70;;;;;;;;;;5101048;28;20268;-68
2022/04/10 03:40:34;;;;;;;6.45;1.83;;;;;;;;;;5099868;28;20016;-68
2022/04/10 03:43:00;;;;;;;4.55;1.73;;;;;;;;;;5085916;28;20027;-68
2022/04/10 03:45:25;;;;;;;6.20;1.80;;;;;;;;;;5103040;28;20160;-67
2022/04/10 03:47:50;;;;;;;10.70;1.92;;;;;;;;;;5106260;28;20015;-68
2022/04/10 03:50:16;;;;;;;5.70;1.48;;;;;;;;;;5087833;27;20409;-67
2022/04/10 03:52:41;;;;;;;6.20;1.88;;;;;;;;;;5104463;27;20401;-68
2022/04/10 03:55:07;;;;;;;7.97;1.73;;;;;;;;;;5121074;27;20025;-68
2022/04/10 03:57:32;;;;;;;5.93;1.75;;;;;;;;;;5107294;27;20516;-68
2022/04/10 03:59:58;;;;;;;6.32;1.98;;;;;;;;;;5106102;27;20118;-66
2022/04/10 04:02:23;;;;;;;8.43;1.75;;;;;;;;;;5105967;27;20015;-68
2022/04/10 04:04:49;;;;;;;5.57;1.80;;;;;;;;;;5106970;27;20058;-68
2022/04/10 04:07:14;;;;;;;12.18;1.90;;;;;;;;;;5122657;27;20034;-68
2022/04/10 04:09:40;;;;;;;9.80;1.75;;;;;;;;;;5122896;27;20023;-67
2022/04/10 04:12:05;;;;;;;6.78;1.80;;;;;;;;;;5106487;27;20434;-67
2022/04/10 04:14:30;;;;;;;8.68;2.03;;;;;;;;;;5125325;27;20023;-68
2022/04/10 04:16:56;;;;;;;5.40;1.85;;;;;;;;;;5124243;27;20389;-66
2022/04/10 04:19:22;;;;;;;7.97;2.03;;;;;;;;;;5105283;27;20358;-67
2022/04/10 04:21:47;;;;;;;6.30;2.05;;;;;;;;;;5104719;27;20054;-67
2022/04/10 04:24:12;;;;;;;10.60;2.08;;;;;;;;;;5101712;27;20382;-67
2022/04/10 04:26:37;;;;;;;6.75;2.03;;;;;;;;;;5107526;27;20050;-67
2022/04/10 04:29:02;;;;;;;7.20;1.73;;;;;;;;;;5124232;27;20111;-67
2022/04/10 04:31:28;;;;;;;6.38;1.55;;;;;;;;;;5124291;27;20033;-67
2022/04/10 04:33:53;;;;;;;7.18;2.20;;;;;;;;;;5090567;27;20106;-68
2022/04/10 04:36:18;;;;;;;9.10;1.70;;;;;;;;;;5120376;27;20525;-67
2022/04/10 04:38:44;;;;;;;7.80;1.58;;;;;;;;;;5123633;27;20338;-68
2022/04/10 04:41:11;;;;;;;3.88;1.38;;;;;;;;;;5086686;27;20590;-68
2022/04/10 04:43:36;;;;;;;7.63;1.55;;;;;;;;;;5106003;27;20026;-68
2022/04/10 04:46:02;;;;;;;5.72;1.50;;;;;;;;;;5104290;27;20027;-68
2022/04/10 04:48:27;;;;;;;9.30;1.70;;;;;;;;;;5105060;27;20023;-67
2022/04/10 04:50:52;;;;;;;7.57;1.50;;;;;;;;;;5104080;27;20054;-69
2022/04/10 04:53:17;;;;;;;7.20;2.13;;;;;;;;;;5125185;27;20118;-67
2022/04/10 04:55:43;;;;;;;3.97;1.52;;;;;;;;;;5122775;27;20042;-67
2022/04/10 04:58:08;;;;;;;4.32;1.70;;;;;;;;;;5127229;27;20029;-69
2022/04/10 05:00:33;;;;;;;5.90;1.80;;;;;;;;;;5148846;27;20023;-68
2022/04/10 05:02:59;;;;;;;5.22;1.80;;;;;;;;;;5126248;27;20070;-66
2022/04/10 05:05:25;;;;;;;6.43;1.77;;;;;;;;;;5142306;27;20026;-68
2022/04/10 05:07:51;;;;;;;7.28;1.95;;;;;;;;;;5107632;27;20029;-68
2022/04/10 05:10:16;;;;;;;5.20;1.67;;;;;;;;;;5140195;27;20023;-68
2022/04/10 05:12:41;;;;;;;7.20;1.50;;;;;;;;;;5126540;27;20110;-67
2022/04/10 05:15:08;;;;;;;10.80;2.10;;;;;;;;;;5123971;27;20057;-68
2022/04/10 05:17:33;;;;;;;9.23;1.65;;;;;;;;;;5144788;27;21212;-68
2022/04/10 05:19:59;;;;;;;6.47;1.70;;;;;;;;;;5126002;27;20031;-67
2022/04/10 05:22:24;;;;;;;8.32;1.92;;;;;;;;;;5123215;27;20519;-68
2022/04/10 05:24:49;;;;;;;4.75;1.70;;;;;;;;;;5104821;27;20019;-67
2022/04/10 05:27:14;;;;;;;7.15;1.80;;;;;;;;;;5125583;27;20022;-67
2022/04/10 05:29:40;;;;;;;5.70;1.52;;;;;;;;;;5125754;27;20397;-69
2022/04/10 05:32:05;;;;;;;5.82;1.70;;;;;;;;;;5125360;27;20026;-68
2022/04/10 05:34:31;;;;;;;5.13;1.55;;;;;;;;;;5124985;27;20344;-68
2022/04/10 05:36:56;;;;;;;6.30;1.95;;;;;;;;;;5145539;27;20095;-67
2022/04/10 05:39:21;;;;;;;10.57;1.45;;;;;;;;;;5123404;27;20207;-68
2022/04/10 05:41:47;;;;;;;5.28;1.65;;;;;;;;;;5149409;27;20117;-68
2022/04/10 05:44:12;;;;;;;6.53;1.52;;;;;;;;;;5112321;27;20051;-68
2022/04/10 05:46:38;;;;;;;5.22;1.50;;;;;;;;;;5148783;27;20515;-68
2022/04/10 05:49:07;;;;;;;8.77;2.00;;;;;;;;;;5107452;27;20034;-69
2022/04/10 05:51:32;;;;;;;6.75;1.88;;;;;;;;;;5089763;27;20061;-68
2022/04/10 05:54:00;;;;;;;10.32;1.92;;;;;;;;;;5088871;27;20027;-67
2022/04/10 05:56:26;;;;;;;10.73;1.70;;;;;;;;;;5126965;27;20027;-67
2022/04/10 05:58:51;;;;;;;6.13;1.42;;;;;;;;;;5109050;27;20430;-68
2022/04/10 06:01:17;;;;;;;6.57;1.58;;;;;;;;;;5091992;27;20027;-68
2022/04/10 06:03:42;;;;;;;5.15;1.55;;;;;;;;;;5108710;27;20110;-68
2022/04/10 06:06:08;;;;;;;5.20;1.60;;;;;;;;;;5106362;27;20051;-67
2022/04/10 06:08:33;;;;;;;5.90;1.50;;;;;;;;;;5090424;27;20435;-67
2022/04/10 06:10:58;;;;;;;3.83;1.50;;;;;;;;;;5125828;27;20020;-67
2022/04/10 06:13:24;;;;;;;7.05;1.70;;;;;;;;;;5091194;27;20082;-68
2022/04/10 06:15:50;;;;;;;8.25;1.95;;;;;;;;;;5126301;27;20038;-67
2022/04/10 06:18:16;;;;;;;4.80;1.45;;;;;;;;;;5107895;27;20091;-68
2022/04/10 06:20:41;;;;;;;8.93;1.80;;;;;;;;;;5104955;27;20027;-66
2022/04/10 06:23:07;;;;;;;6.32;1.90;;;;;;;;;;5106506;27;20023;-67
2022/04/10 06:25:32;;;;;;;9.90;1.80;;;;;;;;;;5081968;27;20576;-67
2022/04/10 06:27:58;;;;;;;10.00;1.98;;;;;;;;;;5103138;27;20059;-67
2022/04/10 06:30:23;;;;;;;13.57;1.92;;;;;;;;;;5080134;27;20023;-68
2022/04/10 06:32:49;;;;;;;9.82;1.70;;;;;;;;;;5106512;27;20023;-67
2022/04/10 06:35:15;;;;;;;11.13;2.17;;;;;;;;;;5127390;27;20125;-77
2022/04/10 06:37:40;;;;;;;10.80;2.13;;;;;;;;;;5124168;27;20090;-76
2022/04/10 06:40:07;;;;;;;9.75;2.00;;;;;;;;;;5105737;27;20221;-77
2022/04/10 06:42:32;;;;;;;8.63;1.70;;;;;;;;;;5120089;27;20348;-78
2022/04/10 06:44:57;;;;;;;9.70;2.28;;;;;;;;;;5110255;27;20080;-78
2022/04/10 06:47:23;;;;;;;7.95;2.35;;;;;;;;;;5132578;27;20017;-76
2022/04/10 06:49:48;;;;;;;11.23;2.08;;;;;;;;;;5111862;27;20049;-77
2022/04/10 06:52:13;;;;;;;9.27;2.22;;;;;;;;;;5102905;27;20063;-77
2022/04/10 06:54:39;;;;;;;8.65;1.80;;;;;;;;;;5088627;27;20058;-79
2022/04/10 06:57:04;;;;;;;9.18;1.40;;;;;;;;;;5118724;27;20114;-77
2022/04/10 06:59:29;;;;;;;6.45;1.65;;;;;;;;;;5084805;28;20453;-78
2022/04/10 07:01:54;;;;;;;6.47;1.70;;;;;;;;;;5124206;27;20118;-78
2022/04/10 07:04:20;;;;;;;6.32;1.45;;;;;;;;;;5116184;27;20115;-77
2022/04/10 07:06:46;;;;;;;6.07;1.75;;;;;;;;;;5093099;28;20396;-77
2022/04/10 07:09:15;;;;;;;8.65;1.70;;;;;;;;;;5115200;27;20041;-77
2022/04/10 07:11:40;;;;;;;5.55;1.42;;;;;;;;;;5094155;27;20076;-78
2022/04/10 07:14:05;;;;;;;5.68;1.55;;;;;;;;;;5103773;27;20031;-77
2022/04/10 07:16:31;;;;;;;6.85;2.30;;;;;;;;;;5115917;27;20051;-78
2022/04/10 07:18:56;;;;;;;7.68;2.17;;;;;;;;;;5110054;27;20019;-78
2022/04/10 07:23:41;;;;;;;8.93;2.30;;;;;;;;;;5099725;28;20507;-78
2022/04/10 07:24:07;;;;;;;8.25;1.85;;;;;;;;;;5104853;27;20030;-81
2022/04/10 07:26:32;;;;;;;6.07;1.70;;;;;;;;;;5110979;27;20015;-79
2022/04/10 07:28:58;;;;;;;10.20;1.58;;;;;;;;;;5114058;27;20415;-78
2022/04/10 07:31:23;;;;;;;6.53;1.40;;;;;;;;;;5111246;27;20030;-78
2022/04/10 07:33:48;;;;;;;5.28;1.83;;;;;;;;;;5089173;28;20036;-78
2022/04/10 07:36:14;;;;;;;3.35;1.35;;;;;;;;;;5111433;27;20034;-79
2022/04/10 07:38:39;;;;;;;5.70;1.52;;;;;;;;;;5100450;28;20482;-77
2022/04/10 07:41:05;;;;;;;10.20;1.60;;;;;;;;;;5114996;27;20457;-78
2022/04/10 07:43:31;;;;;;;6.32;1.40;;;;;;;;;;5122755;27;20096;-77
2022/04/10 07:48:41;;;;;;;8.15;1.73;;;;;;;;;;5119860;27;20035;-79
2022/04/10 07:51:07;;;;;;;6.22;2.03;;;;;;;;;;5109971;27;20130;-79
2022/04/10 07:53:34;;;;;;;7.80;2.40;;;;;;;;;;5100792;28;20425;-80
2022/04/10 07:55:59;;;;;;;10.75;2.00;;;;;;;;;;5101564;28;20478;-79
2022/04/10 07:58:25;;;;;;;6.07;1.65;;;;;;;;;;5103012;28;20035;-79
2022/04/10 08:00:51;;;;;;;7.88;1.73;;;;;;;;;;5085532;28;20042;-78
2022/04/10 08:03:17;;;;;;;7.75;1.63;;;;;;;;;;5105689;28;20405;-79
2022/04/10 08:05:42;;;;;;;5.10;1.67;;;;;;;;;;5082789;28;20114;-77
2022/04/10 08:08:07;;;;;;;3.28;1.45;;;;;;;;;;5103492;28;20103;-78
2022/04/10 08:10:33;;;;;;;8.73;1.67;;;;;;;;;;5097401;28;20058;-78
2022/04/10 08:12:58;;;;;;;7.82;1.60;;;;;;;;;;5123737;27;20389;-79
2022/04/10 08:15:24;;;;;;;5.18;1.73;;;;;;;;;;5122031;27;20054;-77
2022/04/10 08:17:50;;;;;;;4.72;1.50;;;;;;;;;;5124172;27;20019;-79
2022/04/10 08:20:16;;;;;;;5.10;1.98;;;;;;;;;;5123542;27;20015;-77
2022/04/10 08:22:47;;;;;;;8.80;2.10;;;;;;;;;;5119120;27;20154;-79
2022/04/10 08:25:14;;;;;;;6.72;1.90;;;;;;;;;;5099638;28;20020;-80
2022/04/10 08:27:40;;;;;;;5.32;1.27;;;;;;;;;;5084304;28;20356;-78
2022/04/10 08:30:09;;;;;;;7.75;1.70;;;;;;;;;;5088460;28;20023;-79
2022/04/10 08:32:36;;;;;;;8.60;1.55;;;;;;;;;;5100864;28;20011;-79
2022/04/10 08:35:01;;;;;;;4.93;1.45;;;;;;;;;;5084309;28;20028;-78
2022/04/10 08:37:26;;;;;;;5.35;1.77;;;;;;;;;;5100297;28;20116;-79
2022/04/10 08:39:52;;;;;;;7.97;1.80;;;;;;;;;;5106643;27;20508;-79
2022/04/10 08:42:23;;;;;;;5.32;1.88;;;;;;;;;;5100568;27;20068;-79
2022/04/10 08:44:49;;;;;;;7.55;2.00;;;;;;;;;;5121352;27;20038;-79
2022/04/10 08:47:20;;;;;;;6.95;2.15;;;;;;;;;;5122213;27;20469;-78
2022/04/10 08:49:46;;;;;;;3.72;1.60;;;;;;;;;;5110572;27;20525;-80
2022/04/10 08:52:12;;;;;;;9.38;1.90;;;;;;;;;;5127171;27;20129;-80
2022/04/10 08:54:37;;;;;;;6.15;1.83;;;;;;;;;;5135761;27;20019;-80
2022/04/10 08:57:03;;;;;;;8.88;2.28;;;;;;;;;;5119989;27;20042;-80
2022/04/10 08:59:28;;;;;;;7.40;2.00;;;;;;;;;;5127817;27;20463;-78
2022/04/10 09:01:54;;;;;;;5.13;1.50;;;;;;;;;;5127361;27;20180;-80
2022/04/10 09:04:23;;;;;;;4.15;1.85;;;;;;;;;;5132178;27;20015;-80
2022/04/10 09:07:07;;;;;;;5.00;1.73;;;;;;;;;;5096849;27;20095;-79
2022/04/10 09:09:34;;;;;;;5.22;1.70;;;;;;;;;;5119998;27;20111;-79
2022/04/10 09:11:59;;;;;;;5.80;1.77;;;;;;;;;;5103696;27;20026;-80
2022/04/10 09:14:25;;;;;;;2.60;1.92;;;;;;;;;;5108212;27;20026;-80
2022/04/10 09:17:11;;;;;;;6.18;1.77;;;;;;;;;;5090683;27;20023;-79
2022/04/10 09:19:37;;;;;;;4.57;2.03;;;;;;;;;;5125499;27;20049;-78
2022/04/10 09:22:20;;;;;;;6.30;1.70;;;;;;;;;;5107653;27;20019;-80
2022/04/10 09:25:08;;;;;;;5.93;2.00;;;;;;;;;;5112742;27;20318;-79
2022/04/10 09:27:38;;;;;;;5.35;1.77;;;;;;;;;;5106604;27;20038;-79
2022/04/10 09:30:04;;;;;;;5.18;1.90;;;;;;;;;;5133586;27;20322;-80
2022/04/10 09:32:39;;;;;;;6.00;1.50;;;;;;;;;;5107683;27;20329;-79
2022/04/10 09:35:04;;;;;;;4.45;1.70;;;;;;;;;;5110956;27;20068;-79
2022/04/10 09:37:32;;;;;;;7.50;1.60;;;;;;;;;;5144854;27;20022;-80
2022/04/10 09:40:22;;;;;;;4.45;1.58;;;;;;;;;;5115951;27;20023;-79
2022/04/10 09:43:07;;;;;;;3.47;1.50;;;;;;;;;;5111233;27;20022;-79
2022/04/10 09:45:35;;;;;;;4.32;1.60;;;;;;;;;;5118052;27;20019;-79
2022/04/10 09:48:27;;;;;;;7.45;1.85;;;;;;;;;;5108860;27;20019;-79
2022/04/10 09:50:56;;;;;;;5.75;1.60;;;;;;;;;;5108111;27;20050;-78
2022/04/10 09:53:22;;;;;;;8.25;2.08;;;;;;;;;;5143598;27;20109;-77
2022/04/10 09:55:54;;;;;;;4.90;1.75;;;;;;;;;;5117845;27;20336;-78
2022/04/10 09:58:20;;;;;;;5.55;2.03;;;;;;;;;;5126737;27;20018;-78
2022/04/10 10:00:46;;;;;;;4.55;1.90;;;;;;;;;;5099601;27;20030;-79
2022/04/10 10:03:12;;;;;;;7.15;1.65;;;;;;;;;;5119400;27;20097;-81
2022/04/10 10:05:38;;;;;;;3.00;1.70;;;;;;;;;;5127865;27;20087;-79
2022/04/10 10:08:04;;;;;;;4.43;1.58;;;;;;;;;;5128024;27;20082;-79
2022/04/10 10:10:30;;;;;;;5.80;1.75;;;;;;;;;;5119141;27;20031;-78
2022/04/10 10:12:56;;;;;;;6.75;1.98;;;;;;;;;;5125495;27;20390;-79
2022/04/10 10:15:22;;;;;;;3.05;1.85;;;;;;;;;;5139806;27;20102;-79
2022/04/10 10:17:48;;;;;;;6.15;1.77;;;;;;;;;;5094995;27;20157;-77
2022/04/10 10:20:14;;;;;;;8.00;1.90;;;;;;;;;;5111999;27;20047;-79
2022/04/10 10:22:39;;;;;;;4.95;1.80;;;;;;;;;;5143174;27;20018;-79
2022/04/10 10:25:17;;;;;;;5.15;1.90;;;;;;;;;;5121511;27;20022;-80
2022/04/10 10:28:01;;;;;;;5.07;2.03;;;;;;;;;;5120830;27;20034;-78
2022/04/10 10:30:29;;;;;;;5.97;2.13;;;;;;;;;;5133819;27;20011;-81
2022/04/10 10:32:56;;;;;;;6.65;2.17;;;;;;;;;;5114892;27;20023;-80
2022/04/10 10:35:38;;;;;;;6.57;1.98;;;;;;;;;;5110712;27;20026;-80
2022/04/10 10:38:17;;;;;;;5.43;1.90;;;;;;;;;;5133492;27;20027;-78
2022/04/10 10:40:42;;;;;;;5.38;1.67;;;;;;;;;;5102457;27;20457;-79
2022/04/10 10:43:08;;;;;;;5.88;2.10;;;;;;;;;;5106537;27;20110;-79
2022/04/10 10:45:43;;;;;;;6.10;2.20;;;;;;;;;;5142015;27;20166;-81
2022/04/10 10:48:24;;;;;;;4.30;1.90;;;;;;;;;;5093841;27;20026;-78
2022/04/10 10:50:51;;;;;;;7.82;1.60;;;;;;;;;;5124391;27;20753;-79
2022/04/10 10:53:23;;;;;;;3.70;1.55;;;;;;;;;;5127076;27;20167;-79
2022/04/10 10:55:49;;;;;;;6.20;2.25;;;;;;;;;;5118622;27;20023;-78
2022/04/10 10:58:15;;;;;;;6.40;1.98;;;;;;;;;;5119851;27;20022;-79
2022/04/10 11:00:44;;;;;;;5.22;1.50;;;;;;;;;;5117427;27;20023;-80
2022/04/10 11:03:09;;;;;;;6.65;1.80;;;;;;;;;;5100800;27;20431;-78
2022/04/10 11:05:36;;;;;;;5.30;2.17;;;;;;;;;;5100558;27;20066;-80
2022/04/10 11:08:09;;;;;;;8.50;2.17;;;;;;;;;;5106437;28;20370;-80
2022/04/10 11:11:09;;;;;;;4.30;1.52;;;;;;;;;;5100862;28;20015;-78
2022/04/10 11:13:44;;;;;;;4.03;1.50;;;;;;;;;;5072300;27;20157;-81
2022/04/10 11:16:10;;;;;;;5.68;1.80;;;;;;;;;;5124291;27;20434;-80
2022/04/10 11:18:40;;;;;;;4.53;1.60;;;;;;;;;;5110838;27;20019;-79
2022/04/10 11:21:11;;;;;;;4.00;1.50;;;;;;;;;;5114598;27;20446;-80
2022/04/10 11:23:39;;;;;;;3.58;1.45;;;;;;;;;;5116789;27;20023;-79
2022/04/10 11:26:08;;;;;;;4.75;1.80;;;;;;;;;;5099538;27;20501;-78
2022/04/10 11:28:55;;;;;;;5.05;1.70;;;;;;;;;;5123114;27;20192;-77
2022/04/10 11:31:32;;;;;;;3.47;1.60;;;;;;;;;;5120039;27;20019;-78
2022/04/10 11:34:09;;;;;;;4.85;1.70;;;;;;;;;;5100450;27;20118;-78
2022/04/10 11:36:45;;;;;;;3.67;1.83;;;;;;;;;;5104091;27;20016;-78
2022/04/10 11:39:10;;;;;;;4.50;1.90;;;;;;;;;;5094863;27;20032;-77
2022/04/10 11:41:37;;;;;;;4.07;1.50;;;;;;;;;;5107952;27;20049;-78
2022/04/10 11:44:04;;;;;;;5.00;1.67;;;;;;;;;;5123608;27;20106;-79
2022/04/10 11:46:30;;;;;;;5.03;1.73;;;;;;;;;;5123449;27;20026;-81
2022/04/10 11:48:57;;;;;;;6.10;1.60;;;;;;;;;;5105674;27;20051;-76
2022/04/10 11:51:22;;;;;;;4.15;2.03;;;;;;;;;;5098698;28;20089;-76
2022/04/10 11:53:54;;;;;;;3.83;1.58;;;;;;;;;;5101602;28;20522;-77
2022/04/10 11:56:19;;;;;;;4.85;1.60;;;;;;;;;;5108580;27;20054;-79
2022/04/10 11:58:44;;;;;;;5.28;1.55;;;;;;;;;;5116347;27;20055;-79
2022/04/10 12:01:10;;;;;;;5.65;1.77;;;;;;;;;;5097641;27;20027;-76
2022/04/10 12:03:43;;;;;;;6.05;1.73;;;;;;;;;;5114918;27;20046;-75
2022/04/10 12:06:09;;;;;;;5.60;1.88;;;;;;;;;;5122987;27;20554;-80
2022/04/10 12:08:35;;;;;;;5.22;1.85;;;;;;;;;;5114702;27;20048;-77
2022/04/10 12:11:02;;;;;;;5.30;2.50;;;;;;;;;;5115321;27;20019;-76
2022/04/10 12:13:34;;;;;;;3.78;1.80;;;;;;;;;;5122551;27;20023;-79
2022/04/10 12:16:10;;;;;;;4.57;1.70;;;;;;;;;;5119941;27;20176;-80
2022/04/10 12:18:46;;;;;;;6.82;1.80;;;;;;;;;;5121118;27;20034;-79
2022/04/10 12:21:13;;;;;;;6.00;1.50;;;;;;;;;;5115891;27;20024;-81
2022/04/10 12:23:38;;;;;;;8.40;1.90;;;;;;;;;;5116955;27;20015;-78
2022/04/10 12:26:04;;;;;;;5.88;1.92;;;;;;;;;;5091150;27;20023;-77
2022/04/10 12:28:29;;;;;;;6.68;1.92;;;;;;;;;;5119030;27;20019;-81
2022/04/10 12:30:57;;;;;;;4.97;1.90;;;;;;;;;;5118318;27;20293;-80
2022/04/10 12:33:22;;;;;;;6.00;1.67;;;;;;;;;;5112087;27;20499;-79
2022/04/10 12:35:48;;;;;;;4.28;1.52;;;;;;;;;;5115376;27;20442;-69
2022/04/10 12:38:16;;;;;;;6.45;1.40;;;;;;;;;;5101034;28;20219;-70
2022/04/10 12:40:41;;;;;;;4.18;1.45;;;;;;;;;;5079427;28;20054;-70
2022/04/10 12:43:07;;;;;;;3.92;1.55;;;;;;;;;;5103657;28;20019;-69
2022/04/10 12:45:33;;;;;;;5.47;1.40;;;;;;;;;;5100839;28;20103;-69
2022/04/10 12:47:59;;;;;;;5.38;1.30;;;;;;;;;;5083612;28;20024;-70
2022/04/10 12:50:26;;;;;;;4.68;1.83;;;;;;;;;;5107015;27;20047;-69
2022/04/10 12:52:55;;;;;;;5.03;1.65;;;;;;;;;;5102306;27;20490;-68
2022/04/10 12:55:22;;;;;;;4.80;1.50;;;;;;;;;;5118775;27;20038;-70
2022/04/10 12:58:04;;;;;;;4.95;1.60;;;;;;;;;;5101933;27;20106;-69
2022/04/10 13:00:30;;;;;;;4.32;1.38;;;;;;;;;;5104057;27;20079;-68
2022/04/10 13:02:56;;;;;;;3.90;1.48;;;;;;;;;;5123383;27;20029;-68
2022/04/10 13:05:21;;;;;;;3.70;1.63;;;;;;;;;;5122582;27;20023;-69
2022/04/10 13:08:00;;;;;;;4.07;1.45;;;;;;;;;;5118853;27;20102;-69
2022/04/10 13:10:26;;;;;;;4.82;1.80;;;;;;;;;;5118754;27;20316;-69
2022/04/10 13:13:02;;;;;;;2.75;1.25;;;;;;;;;;5103685;27;20120;-68
2022/04/10 13:15:36;;;;;;;4.90;1.10;;;;;;;;;;5122656;27;20091;-69
2022/04/10 13:18:05;;;;;;;5.43;1.20;;;;;;;;;;5104357;27;20255;-70
2022/04/10 13:20:32;;;;;;;3.00;1.00;;;;;;;;;;5102744;27;20019;-71
2022/04/10 13:22:57;;;;;;;5.60;1.42;;;;;;;;;;5104306;27;20019;-69
2022/04/10 13:25:24;;;;;;;2.30;1.00;;;;;;;;;;5101472;27;20037;-69
2022/04/10 13:27:50;;;;;;;2.30;0.90;;;;;;;;;;5103593;27;20391;-68
2022/04/10 13:30:16;;;;;;;3.55;1.15;;;;;;;;;;5122282;27;20156;-69
2022/04/10 13:32:42;;;;;;;4.30;1.30;;;;;;;;;;5123356;27;20105;-69
2022/04/10 13:35:08;;;;;;;2.90;0.90;;;;;;;;;;5085884;27;20027;-68
2022/04/10 13:37:33;;;;;;;2.97;1.00;;;;;;;;;;5085204;27;20072;-69
2022/04/10 13:39:59;;;;;;;3.17;1.10;;;;;;;;;;5121755;27;20034;-69
2022/04/10 13:42:25;;;;;;;2.40;1.00;;;;;;;;;;5102564;27;20533;-68
2022/04/10 13:44:51;;;;;;;3.50;1.40;;;;;;;;;;5103567;27;20027;-70
2022/04/10 13:47:17;;;;;;;5.25;2.40;;;;;;;;;;5104029;27;20339;-69
2022/04/10 13:49:42;;;;;;;6.13;1.83;;;;;;;;;;5106055;27;20095;-69
2022/04/10 13:52:08;;;;;;;4.57;2.80;;;;;;;;;;5094385;28;20067;-69
2022/04/10 13:54:33;;;;;;;7.88;4.80;;;;;;;;;;5119914;28;20061;-69
2022/04/10 13:56:58;;;;;;;7.43;4.18;;;;;;;;;;5101845;27;20071;-70
2022/04/10 13:59:24;;;;;;;10.05;4.80;;;;;;;;;;5126595;27;20027;-67
2022/04/10 14:01:49;;;;;;;4.78;2.10;;;;;;;;;;5124862;27;20269;-68
2022/04/10 14:04:14;;;;;;;5.38;1.90;;;;;;;;;;5124416;27;20027;-68
2022/04/10 14:06:40;;;;;;;7.97;3.10;;;;;;;;;;5124061;27;20175;-70
2022/04/10 14:09:05;;;;;;;6.63;3.40;;;;;;;;;;5121166;27;20424;-67
2022/04/10 14:11:30;;;;;;;8.48;3.70;;;;;;;;;;5122001;27;20027;-70
2022/04/10 14:13:56;;;;;;;4.45;3.05;;;;;;;;;;5123719;27;20102;-69
2022/04/10 14:16:21;;;;;;;6.70;2.78;;;;;;;;;;5125444;27;20015;-71
2022/04/10 14:18:47;;;;;;;5.88;2.40;;;;;;;;;;5129411;27;20027;-69
2022/04/10 14:21:13;;;;;;;7.05;2.72;;;;;;;;;;5124107;27;20022;-70
2022/04/10 14:23:38;;;;;;;7.22;2.30;;;;;;;;;;5124830;27;20448;-69
2022/04/10 14:26:07;;;;;;;21.15;9.98;;;;;;;;;;5120076;27;20023;-68
2022/04/10 14:28:32;;;;;;;13.80;6.22;;;;;;;;;;5125653;27;20056;-68
2022/04/10 14:30:58;;;;;;;13.02;7.57;;;;;;;;;;5121421;27;20081;-69
2022/04/10 14:33:23;;;;;;;10.13;6.47;;;;;;;;;;5126133;27;20110;-69
2022/04/10 14:35:48;;;;;;;29.80;11.07;;;;;;;;;;5103302;27;20043;-70
2022/04/10 14:38:14;;;;;;;7.32;2.88;;;;;;;;;;5123334;27;20482;-69
2022/04/10 14:40:40;;;;;;;10.32;3.10;;;;;;;;;;5126847;27;20034;-69
2022/04/10 14:43:05;;;;;;;6.75;2.97;;;;;;;;;;5123718;27;20027;-68